createdAt,value
2022-09-22T00:01:42.092Z,8.30
2022-09-22T00:06:46.653Z,10.60
2022-09-22T00:11:51.126Z,8.50
2022-09-22T00:16:55.297Z,8.85
2022-09-22T00:21:56.884Z,10.98
2022-09-22T00:26:59.433Z,9.40
2022-09-22T00:32:06.954Z,12.57
2022-09-22T00:37:08.966Z,10.75
2022-09-22T00:42:10.917Z,12.65
2022-09-22T00:47:19.394Z,8.25
2022-09-22T00:52:45.395Z,14.75
2022-09-22T00:57:48.117Z,9.85
2022-09-22T01:02:52.401Z,9.27
2022-09-22T01:07:53.972Z,6.07
2022-09-22T01:13:04.382Z,7.63
2022-09-22T01:18:37.500Z,10.35
2022-09-22T01:23:53.228Z,10.63
2022-09-22T01:29:33.399Z,7.85
2022-09-22T01:35:03.487Z,6.95
2022-09-22T01:40:09.396Z,8.38
2022-09-22T01:45:16.065Z,12.35
2022-09-22T01:50:25.452Z,10.13
2022-09-22T01:55:53.549Z,10.27
2022-09-22T02:01:05.531Z,11.57
2022-09-22T02:06:34.130Z,10.57
2022-09-22T02:11:35.809Z,11.10
2022-09-22T02:16:37.513Z,10.95
2022-09-22T02:21:40.463Z,11.18
2022-09-22T02:26:42.036Z,10.57
2022-09-22T02:31:43.690Z,10.02
2022-09-22T02:37:10.947Z,10.93
2022-09-22T02:42:34.732Z,12.07
2022-09-22T02:47:48.121Z,10.98
2022-09-22T02:52:57.292Z,13.30
2022-09-22T02:57:58.849Z,11.70
2022-09-22T03:03:00.533Z,9.00
2022-09-22T03:08:02.128Z,8.43
2022-09-22T03:13:15.902Z,8.93
2022-09-22T03:18:18.259Z,11.48
2022-09-22T03:23:19.751Z,11.55
2022-09-22T03:28:21.440Z,10.10
2022-09-22T03:33:22.915Z,15.73
2022-09-22T03:38:24.440Z,16.27
2022-09-22T03:43:26.007Z,16.83
2022-09-22T03:48:28.672Z,13.75
2022-09-22T03:53:30.331Z,12.68
2022-09-22T03:58:31.887Z,12.68
2022-09-22T04:03:34.332Z,16.17
2022-09-22T04:08:36.258Z,12.77
2022-09-22T04:13:38.981Z,14.18
2022-09-22T04:18:43.604Z,13.25
2022-09-22T04:23:45.099Z,10.63
2022-09-22T04:28:46.613Z,13.80
2022-09-22T04:33:48.144Z,14.60
2022-09-22T04:38:49.686Z,13.07
2022-09-22T04:43:51.394Z,15.30
2022-09-22T04:48:53.190Z,11.73
2022-09-22T04:53:54.758Z,15.15
2022-09-22T04:58:56.289Z,13.38
2022-09-22T05:03:57.801Z,18.70
2022-09-22T05:08:59.302Z,17.02
2022-09-22T05:14:01.023Z,14.13
2022-09-22T05:19:02.522Z,14.27
2022-09-22T05:24:04.189Z,15.35
2022-09-22T05:29:05.703Z,13.30
2022-09-22T05:34:07.492Z,15.05
2022-09-22T05:39:09.094Z,16.73
2022-09-22T05:44:10.658Z,26.90
2022-09-22T05:49:12.571Z,22.42
2022-09-22T05:54:14.080Z,15.90
2022-09-22T05:59:15.742Z,9.07
2022-09-22T06:04:17.234Z,13.52
2022-09-22T06:09:18.781Z,5.30
2022-09-22T06:14:20.274Z,6.43
2022-09-22T06:19:22.090Z,5.00
2022-09-22T06:24:24.027Z,5.57
2022-09-22T06:29:25.548Z,4.65
2022-09-22T06:34:27.245Z,7.00
2022-09-22T06:39:28.794Z,6.35
2022-09-22T06:44:30.486Z,8.98
2022-09-22T06:49:32.246Z,4.68
2022-09-22T06:54:33.765Z,8.88
2022-09-22T06:59:35.596Z,4.88
2022-09-22T07:04:37.077Z,5.22
2022-09-22T07:09:38.659Z,4.55
2022-09-22T07:14:40.150Z,5.15
2022-09-22T07:19:42.303Z,5.85
2022-09-22T07:24:43.842Z,6.40
2022-09-22T07:29:45.359Z,4.65
2022-09-22T07:34:47.040Z,4.43
2022-09-22T07:39:48.526Z,4.85
2022-09-22T07:44:49.998Z,6.03
2022-09-22T07:49:51.611Z,6.50
2022-09-22T07:54:53.231Z,3.53
2022-09-22T07:59:54.813Z,6.10
2022-09-22T08:04:58.696Z,4.97
2022-09-22T08:10:00.206Z,5.50
2022-09-22T08:15:01.900Z,3.67
2022-09-22T08:20:03.920Z,5.18
2022-09-22T08:25:07.867Z,4.47
2022-09-22T08:30:09.571Z,4.00
2022-09-22T08:35:11.167Z,5.60
2022-09-22T08:40:21.267Z,5.53
2022-09-22T08:45:32.467Z,3.08
2022-09-22T08:50:46.121Z,3.42
2022-09-22T08:55:55.277Z,2.65
2022-09-22T09:01:09.958Z,2.67
2022-09-22T09:06:29.652Z,8.55
2022-09-22T09:11:45.688Z,2.72
2022-09-22T09:17:01.016Z,2.08
2022-09-22T09:22:07.866Z,4.57
2022-09-22T09:27:16.250Z,4.03
2022-09-22T09:32:31.092Z,6.18
2022-09-22T09:37:32.837Z,4.47
2022-09-22T09:42:35.243Z,4.15
2022-09-22T09:47:59.070Z,5.03
2022-09-22T09:53:01.479Z,3.35
2022-09-22T09:58:11.568Z,3.03
2022-09-22T10:03:33.591Z,2.25
2022-09-22T10:08:47.453Z,2.13
2022-09-22T10:13:56.822Z,3.90
2022-09-22T10:18:58.260Z,2.55
2022-09-22T10:24:00.753Z,2.70
2022-09-22T10:29:32.039Z,2.38
2022-09-22T10:39:58.786Z,3.78
2022-09-22T10:45:13.301Z,2.47
2022-09-22T10:50:23.584Z,2.15
2022-09-22T10:55:30.563Z,2.25
2022-09-22T11:00:39.213Z,2.95
2022-09-22T11:06:05.983Z,2.63
2022-09-22T11:11:27.272Z,2.10
2022-09-22T11:16:46.165Z,1.67
2022-09-22T11:22:18.770Z,1.98
2022-09-22T11:27:35.215Z,1.23
2022-09-22T11:32:55.647Z,4.45
2022-09-22T11:38:21.258Z,1.52
2022-09-22T11:43:41.241Z,1.42
2022-09-22T11:48:55.628Z,1.67
2022-09-22T11:54:09.758Z,1.77
2022-09-22T12:00:04.724Z,1.17
2022-09-22T12:05:19.619Z,2.33
2022-09-22T12:10:35.352Z,0.90
2022-09-22T12:15:40.006Z,3.22
2022-09-22T12:20:53.559Z,0.70
2022-09-22T12:25:57.821Z,2.03
2022-09-22T12:31:11.478Z,1.20
2022-09-22T12:36:14.193Z,1.83
2022-09-22T12:41:19.329Z,2.10
2022-09-22T12:46:26.866Z,1.67
2022-09-22T12:51:30.750Z,1.38
2022-09-22T12:56:45.275Z,1.25
2022-09-22T13:02:12.651Z,1.50
2022-09-22T13:07:45.001Z,1.33
2022-09-22T13:13:01.627Z,1.48
2022-09-22T13:18:04.365Z,1.45
2022-09-22T13:23:13.127Z,1.75
2022-09-22T13:28:23.265Z,1.27
2022-09-22T13:33:27.986Z,1.25
2022-09-22T13:38:31.005Z,0.67
2022-09-22T13:43:38.199Z,1.70
2022-09-22T13:48:39.875Z,1.30
2022-09-22T13:53:49.263Z,1.33
2022-09-22T13:58:53.278Z,1.60
2022-09-22T14:03:55.803Z,1.70
2022-09-22T14:08:58.129Z,1.33
2022-09-22T14:14:02.090Z,1.20
2022-09-22T14:19:13.495Z,0.90
2022-09-22T14:24:15.498Z,0.80
2022-09-22T14:29:23.049Z,0.90
2022-09-22T14:34:30.485Z,1.75
2022-09-22T14:39:32.472Z,1.48
2022-09-22T14:44:36.972Z,1.52
2022-09-22T14:49:40.945Z,0.68
2022-09-22T14:54:44.199Z,1.80
2022-09-22T14:59:54.691Z,2.72
2022-09-22T15:04:56.509Z,1.77
2022-09-22T15:10:01.025Z,4.78
2022-09-22T15:15:02.808Z,1.30
2022-09-22T15:20:04.586Z,1.55
2022-09-22T15:25:06.460Z,1.45
2022-09-22T15:30:13.525Z,0.75
2022-09-22T15:35:16.760Z,1.67
2022-09-22T15:40:21.302Z,2.15
2022-09-22T15:45:23.616Z,1.33
2022-09-22T15:50:29.426Z,1.55
2022-09-22T16:00:32.656Z,1.20
2022-09-22T16:05:34.192Z,1.67
2022-09-22T16:10:35.716Z,1.33
2022-09-22T16:15:37.710Z,2.13
2022-09-22T16:20:39.384Z,1.55
2022-09-22T16:25:40.929Z,2.15
2022-09-22T16:30:42.427Z,1.10
2022-09-22T16:35:43.954Z,2.95
2022-09-22T16:40:59.192Z,3.20
2022-09-22T16:46:00.743Z,2.58
2022-09-22T16:51:02.281Z,4.05
2022-09-22T16:56:03.873Z,2.88
2022-09-22T17:01:05.651Z,1.38
2022-09-22T17:06:09.014Z,2.53
2022-09-22T17:11:11.899Z,3.42
2022-09-22T17:16:21.488Z,2.38
2022-09-22T17:21:23.463Z,3.75
2022-09-22T17:26:24.958Z,1.65
2022-09-22T17:31:27.808Z,2.35
2022-09-22T17:36:29.602Z,4.03
2022-09-22T17:41:33.587Z,2.28
2022-09-22T17:46:35.313Z,4.45
2022-09-22T17:51:38.098Z,5.40
2022-09-22T17:56:39.655Z,6.47
2022-09-22T18:01:41.236Z,2.80
2022-09-22T18:06:42.758Z,5.05
2022-09-22T18:11:44.994Z,4.97
2022-09-22T18:16:46.545Z,4.13
2022-09-22T18:21:48.692Z,7.07
2022-09-22T18:26:50.363Z,4.03
2022-09-22T18:31:52.212Z,3.38
2022-09-22T18:36:54.217Z,3.20
2022-09-22T18:41:55.823Z,2.78
2022-09-22T18:46:57.381Z,3.38
2022-09-22T18:52:00.083Z,4.15
2022-09-22T18:57:01.731Z,13.35
2022-09-22T19:02:03.374Z,3.00
2022-09-22T19:07:04.948Z,3.67
2022-09-22T19:12:08.263Z,4.97
2022-09-22T19:17:11.613Z,4.15
2022-09-22T19:22:13.162Z,8.05
2022-09-22T19:27:16.939Z,4.10
2022-09-22T19:32:18.528Z,4.88
2022-09-22T19:37:20.915Z,5.05
2022-09-22T19:42:22.431Z,4.78
2022-09-22T19:47:23.988Z,4.50
2022-09-22T19:52:27.437Z,4.78
2022-09-22T19:57:29.058Z,5.40
2022-09-22T20:02:30.584Z,6.85
2022-09-22T20:07:32.311Z,6.72
2022-09-22T20:12:33.878Z,5.43
2022-09-22T20:17:35.487Z,4.55
2022-09-22T20:22:37.633Z,5.05
2022-09-22T20:27:39.194Z,5.30
2022-09-22T20:32:40.697Z,5.78
2022-09-22T20:37:42.237Z,6.43
2022-09-22T20:42:43.807Z,4.93
2022-09-22T20:47:45.338Z,6.35
2022-09-22T20:52:46.942Z,4.82
2022-09-22T20:57:48.722Z,6.45
2022-09-22T21:02:50.425Z,5.63
2022-09-22T21:07:51.980Z,6.13
2022-09-22T21:12:53.507Z,6.13
2022-09-22T21:17:55.111Z,7.82
2022-09-22T21:22:56.639Z,5.00
2022-09-22T21:27:58.128Z,5.72
2022-09-22T21:32:59.896Z,5.70
2022-09-22T21:38:01.405Z,5.47
2022-09-22T21:43:02.893Z,4.90
2022-09-22T21:48:04.546Z,8.57
2022-09-22T21:53:06.064Z,7.88
2022-09-22T21:58:07.598Z,5.82
2022-09-22T22:03:09.238Z,5.80
2022-09-22T22:08:10.737Z,7.05
2022-09-22T22:13:12.221Z,6.97
2022-09-22T22:18:13.914Z,7.88
2022-09-22T22:23:15.398Z,5.47
2022-09-22T22:28:16.901Z,5.55
2022-09-22T22:33:18.676Z,4.28
2022-09-22T22:38:23.596Z,7.15
2022-09-22T22:43:25.120Z,6.13
2022-09-22T22:48:27.277Z,4.50
2022-09-22T22:53:28.841Z,5.97
2022-09-22T22:58:32.571Z,4.93
2022-09-22T23:03:34.055Z,6.95
2022-09-22T23:08:35.874Z,7.90
2022-09-22T23:13:39.451Z,5.75
2022-09-22T23:18:41.611Z,5.50
2022-09-22T23:23:44.116Z,5.10
2022-09-22T23:28:45.773Z,6.50
2022-09-22T23:33:48.911Z,5.88
2022-09-22T23:38:59.106Z,8.63
2022-09-22T23:44:01.021Z,6.10
2022-09-22T23:49:02.653Z,4.97
2022-09-22T23:54:04.403Z,6.95
2022-09-22T23:59:06.091Z,5.03
